Time;durP1;ratioP1;P1;durP2;ratioP2;P2;SDS_P1;SDS_P2;PMS_P1;PMS_P2;Temp;Humidity;BMP_temperature;BMP_pressure;BME280_temperature;BME280_humidity;BME280_pressure;Samples;Min_cycle;Max_cycle;Signal;HPM_P1;HPM_P2
2022/06/02 00:00:08;;;;;;;11.20;8.90;;;9.80;99.90;;;;;;6244863;28;20486;-60
2022/06/02 00:03:24;;;;;;;11.30;9.90;;;9.70;99.90;;;;;;6243514;28;20041;-60
2022/06/02 00:06:43;;;;;;;11.60;9.98;;;9.70;99.90;;;;;;6244610;28;20167;-60
2022/06/02 00:10:00;;;;;;;10.90;9.60;;;9.70;99.90;;;;;;6242278;28;20049;-60
2022/06/02 00:13:21;;;;;;;14.43;10.80;;;9.60;99.90;;;;;;6244436;28;20048;-59
2022/06/02 00:16:31;;;;;;;13.02;10.80;;;9.60;99.90;;;;;;6241620;28;20045;-60
2022/06/02 00:19:41;;;;;;;13.43;10.02;;;9.60;99.90;;;;;;6245013;28;20053;-60
2022/06/02 00:22:53;;;;;;;15.82;11.43;;;9.70;99.90;;;;;;6245710;28;20049;-59
2022/06/02 00:26:01;;;;;;;13.70;11.30;;;9.70;99.90;;;;;;6242658;28;20048;-60
2022/06/02 00:29:17;;;;;;;13.43;11.32;;;9.70;99.90;;;;;;6242698;28;20415;-59
2022/06/02 00:32:25;;;;;;;14.15;11.07;;;9.70;99.90;;;;;;6238443;28;20060;-60
2022/06/02 00:35:35;;;;;;;15.50;11.85;;;9.70;99.90;;;;;;6244218;28;20048;-60
2022/06/02 00:38:39;;;;;;;14.10;11.73;;;9.60;99.90;;;;;;6243526;28;20061;-60
2022/06/02 00:41:50;;;;;;;14.02;11.55;;;9.60;99.90;;;;;;6243450;28;20409;-60
2022/06/02 00:44:56;;;;;;;13.50;12.05;;;9.60;99.90;;;;;;6239872;28;20397;-59
2022/06/02 00:48:11;;;;;;;14.05;11.73;;;9.60;99.90;;;;;;6243881;28;20048;-60
2022/06/02 00:51:16;;;;;;;12.80;11.55;;;9.50;99.90;;;;;;6241394;28;20068;-59
2022/06/02 00:58:05;;;;;;;16.50;11.90;;;9.40;99.90;;;;;;6238924;28;20049;-60
2022/06/02 01:01:12;;;;;;;14.35;11.10;;;9.40;99.90;;;;;;6243721;28;20589;-60
2022/06/02 01:04:18;;;;;;;13.65;12.20;;;9.40;99.90;;;;;;6242993;28;20505;-60
2022/06/02 01:07:31;;;;;;;15.20;12.55;;;9.40;99.90;;;;;;6243731;28;20042;-60
2022/06/02 01:10:51;;;;;;;16.85;12.90;;;9.40;99.90;;;;;;6237716;28;20053;-59
2022/06/02 01:14:21;;;;;;;12.82;11.18;;;9.40;99.90;;;;;;6243424;28;20045;-59
2022/06/02 01:17:34;;;;;;;14.35;12.07;;;9.40;99.90;;;;;;6231885;28;20046;-60
2022/06/02 01:20:44;;;;;;;13.60;12.20;;;9.40;99.90;;;;;;6236006;28;20501;-60
2022/06/02 01:24:08;;;;;;;16.40;11.90;;;9.40;99.90;;;;;;6237335;28;20084;-59
2022/06/02 01:27:27;;;;;;;13.18;11.30;;;9.40;99.90;;;;;;6234578;28;20052;-60
2022/06/02 01:30:51;;;;;;;13.23;11.40;;;9.40;99.90;;;;;;6234212;28;20068;-60
2022/06/02 01:34:03;;;;;;;14.95;11.68;;;9.40;99.90;;;;;;6234027;28;20158;-59
2022/06/02 01:37:14;;;;;;;15.50;11.77;;;9.50;99.90;;;;;;6242866;28;20045;-59
2022/06/02 01:40:27;;;;;;;14.48;12.98;;;9.50;99.90;;;;;;6242198;28;20083;-60
2022/06/02 01:43:40;;;;;;;14.20;11.10;;;9.50;99.90;;;;;;6241823;28;20038;-60
2022/06/02 01:46:48;;;;;;;14.05;11.73;;;9.40;99.90;;;;;;6237930;28;20045;-60
2022/06/02 01:50:13;;;;;;;13.88;11.55;;;9.50;99.90;;;;;;6242630;28;20048;-59
2022/06/02 01:53:24;;;;;;;12.88;10.80;;;9.50;99.90;;;;;;6235845;28;20557;-60
2022/06/02 01:56:41;;;;;;;13.38;11.05;;;9.50;99.90;;;;;;6243315;28;20112;-60
2022/06/02 01:59:57;;;;;;;14.48;12.20;;;9.50;99.90;;;;;;6241285;28;20045;-60
2022/06/02 02:03:12;;;;;;;16.05;12.60;;;9.50;99.90;;;;;;6238305;28;20414;-59
2022/06/02 02:06:21;;;;;;;16.33;13.88;;;9.50;99.90;;;;;;6240838;28;20060;-60
2022/06/02 02:09:30;;;;;;;14.60;11.85;;;9.50;99.90;;;;;;6242972;28;20057;-59
2022/06/02 02:12:46;;;;;;;15.00;13.40;;;9.40;99.90;;;;;;6243669;28;20049;-60
2022/06/02 02:15:53;;;;;;;18.38;13.40;;;9.30;99.90;;;;;;6240613;28;20053;-60
2022/06/02 02:19:07;;;;;;;17.45;13.77;;;9.20;99.90;;;;;;6241989;28;20061;-59
2022/06/02 02:22:17;;;;;;;18.23;13.00;;;9.20;99.90;;;;;;6239113;28;20049;-60
2022/06/02 02:25:35;;;;;;;16.92;14.48;;;9.10;99.90;;;;;;6235538;28;20057;-60
2022/06/02 02:28:49;;;;;;;15.57;13.93;;;9.10;99.90;;;;;;6241673;28;20041;-59
2022/06/02 02:31:59;;;;;;;18.35;14.23;;;9.00;99.90;;;;;;6239800;28;20494;-59
2022/06/02 02:35:12;;;;;;;17.58;14.73;;;9.10;99.90;;;;;;6238310;28;20053;-60
2022/06/02 02:38:22;;;;;;;17.60;15.02;;;9.10;99.90;;;;;;6242666;28;20080;-59
2022/06/02 02:41:30;;;;;;;16.95;14.48;;;9.00;99.90;;;;;;6238329;28;20049;-59
2022/06/02 02:44:37;;;;;;;19.25;15.57;;;9.00;99.90;;;;;;6239361;28;20117;-59
2022/06/02 02:47:44;;;;;;;17.88;15.30;;;8.90;99.90;;;;;;6238262;28;20089;-59
2022/06/02 02:50:55;;;;;;;18.45;16.45;;;8.90;99.90;;;;;;6240912;28;20057;-59
2022/06/02 02:54:05;;;;;;;19.30;14.93;;;8.80;99.90;;;;;;6242930;28;20046;-59
2022/06/02 02:57:16;;;;;;;17.75;15.38;;;8.80;99.90;;;;;;6241780;28;20056;-59
2022/06/02 03:00:21;;;;;;;21.05;17.02;;;8.70;99.90;;;;;;6233293;28;20421;-59
2022/06/02 03:03:29;;;;;;;19.95;16.52;;;8.80;99.90;;;;;;6241096;28;20206;-60
2022/06/02 03:06:36;;;;;;;22.73;16.45;;;8.80;99.90;;;;;;6240782;28;20054;-60
2022/06/02 03:09:44;;;;;;;18.33;15.82;;;8.70;99.90;;;;;;6242107;28;20054;-59
2022/06/02 03:13:06;;;;;;;18.40;16.27;;;8.70;99.90;;;;;;6241318;28;20041;-60
2022/06/02 03:16:10;;;;;;;18.80;14.50;;;8.70;99.90;;;;;;6242949;28;20041;-59
2022/06/02 03:19:23;;;;;;;17.75;15.85;;;8.70;99.90;;;;;;6245939;28;20410;-59
2022/06/02 03:22:40;;;;;;;20.52;15.27;;;8.70;99.90;;;;;;6237466;28;20440;-59
2022/06/02 03:25:46;;;;;;;17.45;15.32;;;8.70;99.90;;;;;;6239019;28;20537;-60
2022/06/02 03:28:54;;;;;;;16.70;14.27;;;8.70;99.90;;;;;;6244919;28;20053;-60
2022/06/02 03:32:02;;;;;;;19.13;14.85;;;8.70;99.90;;;;;;6242681;28;20486;-60
2022/06/02 03:35:13;;;;;;;17.55;14.75;;;8.70;99.90;;;;;;6244686;28;20057;-60
2022/06/02 03:38:33;;;;;;;48.78;15.90;;;8.70;99.90;;;;;;6243201;28;20056;-60
2022/06/02 03:41:59;;;;;;;19.35;14.90;;;8.70;99.90;;;;;;6240662;28;20057;-60
2022/06/02 03:45:17;;;;;;;16.80;14.02;;;8.70;99.90;;;;;;6243132;28;20128;-60
2022/06/02 03:48:35;;;;;;;17.15;14.93;;;8.60;99.90;;;;;;6245071;28;20045;-59
2022/06/02 03:51:47;;;;;;;17.45;14.70;;;8.70;99.90;;;;;;6239005;28;20141;-60
2022/06/02 03:55:03;;;;;;;18.60;14.15;;;8.70;99.90;;;;;;6246418;28;20084;-60
2022/06/02 03:58:32;;;;;;;14.93;13.35;;;8.70;99.90;;;;;;6244818;28;20045;-59
2022/06/02 04:01:37;;;;;;;13.60;12.10;;;8.90;99.90;;;;;;6245022;28;20045;-60
2022/06/02 04:04:51;;;;;;;14.20;12.70;;;9.00;99.90;;;;;;6236611;28;20068;-60
2022/06/02 04:08:03;;;;;;;17.23;13.43;;;9.10;99.90;;;;;;6240993;28;22159;-60
2022/06/02 04:11:20;;;;;;;15.75;13.15;;;9.20;99.90;;;;;;6240181;28;20056;-60
2022/06/02 04:14:30;;;;;;;12.52;11.30;;;9.40;99.90;;;;;;6242728;28;20059;-59
2022/06/02 04:17:41;;;;;;;12.68;11.48;;;9.60;99.90;;;;;;6241026;28;20402;-60
2022/06/02 04:21:00;;;;;;;14.40;12.50;;;9.70;99.90;;;;;;6242345;28;20046;-60
2022/06/02 04:24:22;;;;;;;15.25;11.85;;;9.70;99.90;;;;;;6243249;28;20056;-60
2022/06/02 04:27:33;;;;;;;27.60;13.63;;;9.60;99.90;;;;;;6238427;28;20060;-60
2022/06/02 04:30:45;;;;;;;15.02;12.80;;;9.60;99.90;;;;;;6237955;28;20512;-59
2022/06/02 04:33:52;;;;;;;13.25;11.93;;;9.60;99.90;;;;;;6243813;28;20053;-60
2022/06/02 04:37:05;;;;;;;15.80;12.10;;;9.60;99.90;;;;;;6246495;28;20042;-60
2022/06/02 04:40:17;;;;;;;13.93;12.00;;;9.60;99.90;;;;;;6242611;28;20482;-60
2022/06/02 04:43:30;;;;;;;14.55;12.10;;;9.70;99.90;;;;;;6238273;28;20053;-59
2022/06/02 04:46:45;;;;;;;13.30;11.57;;;9.60;99.90;;;;;;6244135;28;20050;-60
2022/06/02 04:49:56;;;;;;;13.48;11.60;;;9.70;99.90;;;;;;6245818;28;20490;-59
2022/06/02 04:53:09;;;;;;;15.35;11.60;;;9.70;99.90;;;;;;6239070;28;20049;-60
2022/06/02 04:56:19;;;;;;;16.75;11.85;;;9.70;99.90;;;;;;6246081;28;20072;-60
2022/06/02 04:59:29;;;;;;;15.15;10.85;;;9.70;99.90;;;;;;6237750;28;20486;-60
2022/06/02 05:02:44;;;;;;;13.75;10.65;;;9.80;99.90;;;;;;6239620;28;20042;-60
2022/06/02 05:05:59;;;;;;;12.43;9.65;;;9.90;99.90;;;;;;6245722;28;20072;-60
2022/06/02 05:09:07;;;;;;;10.85;9.07;;;10.40;99.90;;;;;;6238101;28;20049;-60
2022/06/02 05:12:20;;;;;;;10.65;7.95;;;10.60;99.90;;;;;;6242768;28;20061;-60
2022/06/02 05:15:46;;;;;;;8.57;7.13;;;10.60;99.90;;;;;;6241621;28;20155;-59
2022/06/02 05:19:16;;;;;;;8.60;6.43;;;11.00;99.90;;;;;;6231303;28;20070;-60
2022/06/02 05:22:44;;;;;;;8.98;5.80;;;11.10;99.90;;;;;;6243168;28;20493;-60
2022/06/02 05:26:11;;;;;;;7.13;4.32;;;11.10;99.90;;;;;;6241701;28;20049;-60
2022/06/02 05:29:28;;;;;;;7.43;5.32;;;11.10;99.90;;;;;;6232004;28;20045;-60
2022/06/02 05:32:53;;;;;;;6.22;4.10;;;11.20;99.90;;;;;;6244858;28;20046;-60
2022/06/02 05:36:21;;;;;;;4.57;4.18;;;11.40;99.90;;;;;;6242889;28;20049;-60
2022/06/02 05:39:50;;;;;;;7.55;3.63;;;11.60;99.90;;;;;;6234586;28;20076;-60
2022/06/02 05:43:17;;;;;;;6.05;4.28;;;11.80;99.90;;;;;;6240924;28;20038;-60
2022/06/02 05:46:35;;;;;;;4.43;2.88;;;12.50;99.90;;;;;;6244250;28;20486;-60
2022/06/02 05:49:44;;;;;;;5.25;3.85;;;13.00;99.90;;;;;;6243750;28;20055;-60
2022/06/02 05:53:00;;;;;;;6.25;3.40;;;13.00;99.90;;;;;;6241902;28;20061;-60
2022/06/02 05:56:14;;;;;;;9.32;4.35;;;12.80;99.90;;;;;;6242588;28;20064;-61
2022/06/02 05:59:43;;;;;;;24.88;4.28;;;12.70;99.90;;;;;;6255143;28;20056;-61
2022/06/02 06:03:13;;;;;;;7.88;3.70;;;12.50;99.90;;;;;;6231954;28;20406;-61
2022/06/02 06:06:29;;;;;;;3.95;3.20;;;12.50;99.90;;;;;;6235502;28;20068;-62
2022/06/02 06:09:44;;;;;;;7.28;2.92;;;12.80;99.90;;;;;;6240875;28;20080;-62
2022/06/02 06:13:00;;;;;;;4.57;3.13;;;13.10;99.90;;;;;;6235118;28;20070;-62
2022/06/02 06:16:12;;;;;;;6.35;2.30;;;13.40;99.90;;;;;;6240250;28;20049;-61
2022/06/02 06:19:47;;;;;;;4.35;3.50;;;13.40;99.90;;;;;;6243689;28;20045;-62
2022/06/02 06:23:13;;;;;;;3.00;2.58;;;13.30;99.90;;;;;;6237058;28;20425;-60
2022/06/02 06:26:28;;;;;;;4.88;2.03;;;13.30;99.90;;;;;;6237094;28;20053;-60
2022/06/02 06:29:44;;;;;;;4.68;2.53;;;13.30;99.90;;;;;;6240247;28;20045;-60
2022/06/02 06:33:02;;;;;;;4.00;2.78;;;13.60;99.90;;;;;;6240017;28;20049;-61
2022/06/02 06:36:12;;;;;;;4.45;2.72;;;13.60;99.90;;;;;;6235969;28;20047;-60
2022/06/02 06:39:25;;;;;;;3.80;2.70;;;13.50;99.90;;;;;;6240372;28;20045;-60
2022/06/02 06:42:51;;;;;;;6.30;3.38;;;13.80;99.90;;;;;;6234644;28;20072;-60
2022/06/02 06:46:01;;;;;;;6.07;3.20;;;13.90;99.90;;;;;;6241937;28;20057;-60
2022/06/02 06:49:11;;;;;;;5.28;2.92;;;13.80;99.90;;;;;;6241738;28;20049;-60
2022/06/02 06:52:25;;;;;;;7.03;3.20;;;13.60;99.90;;;;;;6247439;28;20053;-60
2022/06/02 06:55:43;;;;;;;5.80;1.92;;;13.50;99.90;;;;;;6247802;28;20437;-60
2022/06/02 06:59:13;;;;;;;3.80;2.10;;;13.40;99.90;;;;;;6236735;28;20148;-60
2022/06/02 07:02:38;;;;;;;3.45;1.80;;;13.90;99.90;;;;;;6243727;28;20049;-60
2022/06/02 07:05:45;;;;;;;4.40;1.40;;;14.10;99.90;;;;;;6247150;28;20053;-61
2022/06/02 07:08:55;;;;;;;2.78;1.40;;;14.40;99.90;;;;;;6245560;28;20061;-60
2022/06/02 07:15:37;;;;;;;4.40;1.40;;;15.60;99.90;;;;;;6242038;28;20041;-60
2022/06/02 07:18:49;;;;;;;4.53;1.50;;;16.20;99.90;;;;;;6238115;28;20049;-61
2022/06/02 07:21:55;;;;;;;1.63;1.23;;;16.60;99.90;;;;;;6240673;28;20430;-60
2022/06/02 07:25:06;;;;;;;3.22;1.40;;;16.20;99.90;;;;;;6244392;28;20053;-61
2022/06/02 07:28:16;;;;;;;3.00;1.40;;;16.20;99.90;;;;;;6244274;28;20053;-61
2022/06/02 07:31:34;;;;;;;3.38;1.50;;;16.30;99.90;;;;;;6241951;28;20061;-61
2022/06/02 07:34:50;;;;;;;6.55;1.83;;;16.60;99.90;;;;;;6245761;28;20095;-60
2022/06/02 07:38:00;;;;;;;3.85;1.42;;;16.80;99.90;;;;;;6240546;28;20052;-60
2022/06/02 07:41:17;;;;;;;2.95;1.60;;;16.30;99.90;;;;;;6243748;28;20531;-59
2022/06/02 07:44:52;;;;;;;7.28;1.70;;;15.70;99.90;;;;;;6246770;28;20049;-60
2022/06/02 07:48:24;;;;;;;6.07;1.80;;;15.70;99.90;;;;;;6245490;28;20495;-60
2022/06/02 07:51:34;;;;;;;5.10;1.70;;;15.70;99.90;;;;;;6242688;28;20060;-59
2022/06/02 07:54:45;;;;;;;4.28;1.85;;;15.60;99.90;;;;;;6245187;28;20037;-60
2022/06/02 07:57:54;;;;;;;4.78;1.75;;;15.60;99.90;;;;;;6245582;28;20045;-60
2022/06/02 08:01:04;;;;;;;4.55;1.75;;;15.80;99.90;;;;;;6239263;28;20061;-59
2022/06/02 08:04:13;;;;;;;5.30;2.40;;;15.50;99.90;;;;;;6244146;28;20049;-59
2022/06/02 08:07:25;;;;;;;2.25;1.42;;;15.00;99.90;;;;;;6239614;28;20061;-59
2022/06/02 08:10:40;;;;;;;7.32;2.33;;;14.90;99.90;;;;;;6241857;28;20522;-59
2022/06/02 08:13:48;;;;;;;3.15;1.98;;;15.30;99.90;;;;;;6246194;28;20041;-59
2022/06/02 08:17:00;;;;;;;2.45;1.77;;;15.70;99.90;;;;;;6245903;28;20421;-59
2022/06/02 08:20:15;;;;;;;4.13;1.90;;;15.90;99.90;;;;;;6237097;28;20049;-59
2022/06/02 08:23:33;;;;;;;3.03;2.03;;;16.00;99.90;;;;;;6241149;28;20060;-60
2022/06/02 08:26:42;;;;;;;3.47;2.60;;;15.90;99.90;;;;;;6241904;28;20397;-60
2022/06/02 08:29:58;;;;;;;6.68;2.38;;;16.00;99.90;;;;;;6244153;28;20068;-59
2022/06/02 08:33:28;;;;;;;4.45;1.90;;;15.70;99.90;;;;;;6235655;28;20061;-59
2022/06/02 08:36:35;;;;;;;4.00;2.00;;;15.70;99.90;;;;;;6238530;28;20052;-59
2022/06/02 08:39:56;;;;;;;4.90;1.77;;;15.60;99.90;;;;;;6239694;28;20398;-59
2022/06/02 08:43:25;;;;;;;3.78;1.60;;;15.60;99.90;;;;;;6243665;28;20053;-59
2022/06/02 08:47:18;;;;;;;5.00;1.55;;;15.40;99.90;;;;;;6241116;28;20049;-59
2022/06/02 08:50:49;;;;;;;2.50;1.38;;;15.20;99.90;;;;;;6167881;28;20058;-59
2022/06/02 08:54:42;;;;;;;4.82;1.77;;;15.40;99.90;;;;;;6164888;28;20160;-59
2022/06/02 08:58:25;;;;;;;3.72;1.50;;;15.70;99.90;;;;;;6241935;28;20049;-60
2022/06/02 09:01:48;;;;;;;3.30;1.33;;;16.00;99.90;;;;;;6243498;28;20072;-59
2022/06/02 09:05:21;;;;;;;7.10;1.90;;;16.20;99.90;;;;;;6242759;28;20057;-60
2022/06/02 09:08:43;;;;;;;3.63;1.48;;;16.20;99.90;;;;;;6229681;28;20045;-60
2022/06/02 09:12:06;;;;;;;5.72;1.67;;;15.90;99.90;;;;;;6242613;28;20050;-60
2022/06/02 09:15:28;;;;;;;2.10;1.33;;;16.10;99.90;;;;;;6241989;28;20061;-60
2022/06/02 09:19:01;;;;;;;1.50;1.23;;;16.10;99.90;;;;;;6216570;28;20126;-59
2022/06/02 09:22:31;;;;;;;2.92;1.55;;;16.20;99.90;;;;;;6244529;28;20187;-60
2022/06/02 09:25:51;;;;;;;4.93;1.75;;;16.10;99.90;;;;;;6241967;28;20053;-60
2022/06/02 09:29:14;;;;;;;4.18;1.60;;;16.20;99.90;;;;;;6242782;28;20402;-60
2022/06/02 09:32:40;;;;;;;3.90;2.10;;;16.30;99.90;;;;;;6258889;28;20487;-60
2022/06/02 09:35:51;;;;;;;3.35;1.42;;;16.50;99.90;;;;;;6238993;28;20046;-60
2022/06/02 09:39:10;;;;;;;2.28;1.50;;;16.60;99.90;;;;;;6241384;28;20049;-60
2022/06/02 09:42:29;;;;;;;1.35;1.17;;;16.60;99.90;;;;;;6243608;28;20049;-60
2022/06/02 09:45:52;;;;;;;3.78;1.83;;;16.80;99.90;;;;;;6241178;28;20049;-59
2022/06/02 09:49:11;;;;;;;4.15;1.73;;;17.10;99.90;;;;;;6238426;28;20410;-60
2022/06/02 09:52:26;;;;;;;2.80;1.30;;;16.90;99.90;;;;;;6241399;28;20061;-60
2022/06/02 09:55:39;;;;;;;3.42;1.30;;;17.00;99.90;;;;;;6239069;28;20395;-60
2022/06/02 09:59:10;;;;;;;2.97;1.27;;;17.10;99.90;;;;;;6238414;28;20045;-60
2022/06/02 10:02:24;;;;;;;2.40;1.20;;;17.40;99.90;;;;;;6243579;28;20646;-60
2022/06/02 10:05:42;;;;;;;3.80;1.00;;;17.70;99.90;;;;;;6233420;28;20049;-60
2022/06/02 10:09:00;;;;;;;2.53;1.33;;;17.60;99.90;;;;;;6236547;28;20486;-59
2022/06/02 10:15:46;;;;;;;1.95;1.08;;;17.20;99.90;;;;;;6237638;28;20126;-60
2022/06/02 10:19:22;;;;;;;2.10;1.20;;;17.70;99.90;;;;;;6237011;28;20449;-60
2022/06/02 10:22:35;;;;;;;2.63;1.17;;;18.20;99.90;;;;;;6251205;28;20048;-62
2022/06/02 10:26:07;;;;;;;2.33;1.10;;;18.40;99.90;;;;;;6264814;28;20048;-64
2022/06/02 10:29:45;;;;;;;1.95;1.13;;;18.60;99.90;;;;;;6246299;28;20049;-61
2022/06/02 10:33:37;;;;;;;3.85;1.50;;;18.80;99.90;;;;;;6240052;28;20054;-67
2022/06/02 10:37:24;;;;;;;5.90;2.05;;;18.50;99.00;;;;;;6249358;28;20254;-66
2022/06/02 10:41:02;;;;;;;2.70;1.45;;;18.40;99.90;;;;;;6199873;28;20049;-65
2022/06/02 10:44:15;;;;;;;3.20;1.52;;;17.90;99.90;;;;;;6225668;28;20041;-65
2022/06/02 10:47:51;;;;;;;2.72;1.40;;;17.80;99.90;;;;;;6244616;28;20127;-65
2022/06/02 10:51:24;;;;;;;4.75;2.08;;;17.70;99.70;;;;;;6243848;28;20057;-65
2022/06/02 10:54:50;;;;;;;4.23;1.50;;;17.50;99.90;;;;;;6251199;28;20413;-65
2022/06/02 10:58:22;;;;;;;2.47;1.63;;;17.40;99.90;;;;;;6247168;28;20045;-66
2022/06/02 11:02:06;;;;;;;6.07;2.33;;;17.50;99.90;;;;;;6248989;28;20048;-65
2022/06/02 11:05:51;;;;;;;2.05;1.40;;;18.10;99.80;;;;;;6224756;28;20408;-65
2022/06/02 11:09:19;;;;;;;;;;;18.40;99.90;;;;;;6250174;28;20418;-65
2022/06/02 11:13:18;;;;;;;3.13;1.50;;;18.70;99.90;;;;;;6245676;28;19958;-65
2022/06/02 11:16:50;;;;;;;2.45;1.70;;;19.10;99.90;;;;;;6241577;28;20505;-66
2022/06/02 11:20:30;;;;;;;2.65;1.10;;;19.40;99.40;;;;;;6245314;28;20052;-65
2022/06/02 11:23:52;;;;;;;3.10;1.50;;;19.30;99.90;;;;;;6247540;28;20076;-65
2022/06/02 11:27:48;;;;;;;2.58;1.67;;;18.70;99.00;;;;;;6241837;28;20056;-65
2022/06/02 11:31:09;;;;;;;2.83;1.50;;;18.60;98.90;;;;;;6166062;28;20482;-65
2022/06/02 11:34:54;;;;;;;3.88;1.27;;;18.60;98.20;;;;;;6233589;28;20497;-65
2022/06/02 11:38:29;;;;;;;3.55;1.42;;;18.50;99.70;;;;;;6243853;28;20520;-65
2022/06/02 11:41:44;;;;;;;5.05;1.80;;;18.80;99.90;;;;;;6244409;28;20061;-65
2022/06/02 11:44:59;;;;;;;3.90;1.55;;;18.80;98.20;;;;;;6240380;28;20430;-65
2022/06/02 11:48:25;;;;;;;5.32;1.60;;;18.50;99.00;;;;;;6238483;28;21091;-65
2022/06/02 11:51:52;;;;;;;2.35;1.10;;;18.00;99.70;;;;;;6246459;28;20052;-65
2022/06/02 11:55:21;;;;;;;2.05;1.20;;;18.30;99.90;;;;;;6245297;28;20045;-65
2022/06/02 11:58:59;;;;;;;4.65;1.60;;;18.70;99.90;;;;;;6246709;28;20406;-65
2022/06/02 12:02:47;;;;;;;3.13;1.63;;;18.70;98.70;;;;;;6247334;28;20049;-66
2022/06/02 12:06:24;;;;;;;2.72;1.35;;;18.70;99.20;;;;;;6172487;28;20050;-65
2022/06/02 12:09:57;;;;;;;4.03;1.55;;;18.70;99.90;;;;;;6240811;28;20056;-66
2022/06/02 12:13:16;;;;;;;3.08;1.33;;;18.70;99.60;;;;;;6245957;28;20060;-65
2022/06/02 12:16:50;;;;;;;2.85;0.95;;;18.70;99.10;;;;;;6247691;28;20057;-66
2022/06/02 12:20:03;;;;;;;;;;;18.60;99.20;;;;;;6202538;28;20100;-65
2022/06/02 12:23:28;;;;;;;2.55;1.20;;;18.70;98.40;;;;;;6243118;28;20302;-65
2022/06/02 12:26:47;;;;;;;2.00;1.30;;;18.80;99.90;;;;;;6246654;28;20049;-65
2022/06/02 12:30:19;;;;;;;2.33;1.15;;;19.10;99.90;;;;;;6247250;28;20163;-65
2022/06/02 12:34:00;;;;;;;1.13;0.90;;;19.10;98.70;;;;;;6246974;28;20064;-65
2022/06/02 12:37:18;;;;;;;3.67;1.55;;;18.90;98.80;;;;;;6246827;28;20060;-65
2022/06/02 12:40:34;;;;;;;3.17;1.40;;;19.10;98.50;;;;;;6245661;28;20067;-66
2022/06/02 12:44:24;;;;;;;7.07;1.70;;;19.20;99.30;;;;;;6247104;28;20053;-65
2022/06/02 12:48:02;;;;;;;3.35;1.52;;;19.50;97.60;;;;;;6176772;28;20578;-65
2022/06/02 12:51:21;;;;;;;3.97;1.55;;;19.40;97.60;;;;;;6174070;28;20065;-66
2022/06/02 12:55:08;;;;;;;1.95;1.30;;;19.30;98.40;;;;;;6233767;28;20057;-65
2022/06/02 12:58:45;;;;;;;1.60;1.30;;;19.30;98.50;;;;;;6228668;28;20050;-66
2022/06/02 13:02:02;;;;;;;2.45;1.10;;;19.50;99.30;;;;;;6239817;28;20089;-65
2022/06/02 13:05:49;;;;;;;2.15;1.15;;;19.70;98.70;;;;;;6241829;28;20045;-66
2022/06/02 13:09:33;;;;;;;2.63;1.50;;;19.90;98.60;;;;;;6245054;28;20045;-65
2022/06/02 13:13:08;;;;;;;3.05;1.42;;;19.80;95.60;;;;;;6236587;28;20517;-66
2022/06/02 13:16:44;;;;;;;1.10;1.00;;;19.80;96.40;;;;;;6234449;28;20049;-66
2022/06/02 13:20:16;;;;;;;5.90;1.73;;;19.50;98.10;;;;;;6243217;28;20319;-66
2022/06/02 13:23:46;;;;;;;3.28;2.00;;;19.30;97.30;;;;;;6215657;28;20050;-67
2022/06/02 13:27:15;;;;;;;3.10;1.52;;;19.30;97.50;;;;;;6239086;28;20414;-67
2022/06/02 13:30:35;;;;;;;1.90;1.17;;;19.40;96.70;;;;;;6232379;28;20065;-66
2022/06/02 13:34:07;;;;;;;2.50;1.35;;;19.40;98.50;;;;;;6242557;28;20045;-66
2022/06/02 13:37:47;;;;;;;2.60;1.80;;;19.60;97.50;;;;;;6224076;28;20060;-66
2022/06/02 13:41:21;;;;;;;2.63;1.20;;;19.90;97.70;;;;;;6237790;28;20421;-66
2022/06/02 13:45:02;;;;;;;2.60;1.50;;;20.10;98.00;;;;;;6245992;28;20485;-66
2022/06/02 13:48:37;;;;;;;3.88;2.15;;;20.00;96.60;;;;;;6227437;28;20052;-65
2022/06/02 13:52:19;;;;;;;2.67;1.52;;;20.00;96.60;;;;;;6242466;28;20418;-66
2022/06/02 13:59:25;;;;;;;2.90;1.05;;;19.80;97.80;;;;;;6246303;28;20490;-66
2022/06/02 14:02:53;;;;;;;2.08;1.40;;;20.10;98.20;;;;;;6243410;28;20050;-66
2022/06/02 14:06:06;;;;;;;3.10;1.58;;;20.20;95.70;;;;;;6222196;28;20069;-66
2022/06/02 14:09:36;;;;;;;3.13;1.50;;;20.20;97.00;;;;;;6241666;28;20049;-66
2022/06/02 14:12:54;;;;;;;3.80;1.60;;;20.00;95.90;;;;;;6245278;28;20056;-66
2022/06/02 14:16:07;;;;;;;3.17;1.60;;;19.50;96.10;;;;;;6242312;28;20509;-66
2022/06/02 14:19:23;;;;;;;2.35;1.60;;;19.40;97.00;;;;;;6242182;28;20065;-65
2022/06/02 14:22:33;;;;;;;2.88;1.38;;;19.50;96.70;;;;;;6232181;28;20502;-66
2022/06/02 14:25:46;;;;;;;4.97;1.50;;;19.20;97.40;;;;;;6245440;28;20513;-65
2022/06/02 14:29:06;;;;;;;2.80;1.27;;;19.00;98.00;;;;;;6245874;28;20050;-66
2022/06/02 14:32:27;;;;;;;3.53;1.63;;;18.80;98.80;;;;;;6220769;28;20057;-66
2022/06/02 14:35:45;;;;;;;7.55;1.60;;;18.30;99.20;;;;;;6221656;28;20052;-66
2022/06/02 14:38:58;;;;;;;3.67;1.35;;;18.00;99.30;;;;;;6235372;28;20049;-66
2022/06/02 14:46:09;;;;;;;4.40;1.67;;;18.50;99.90;;;;;;6221126;28;20049;-66
2022/06/02 14:49:33;;;;;;;3.28;1.80;;;18.40;98.60;;;;;;6239567;28;20054;-66
2022/06/02 14:53:17;;;;;;;5.93;1.73;;;18.50;99.70;;;;;;6237516;28;20521;-66
2022/06/02 14:56:39;;;;;;;3.75;1.80;;;18.40;98.10;;;;;;6238694;28;20042;-68
2022/06/02 15:00:17;;;;;;;2.42;1.38;;;18.30;99.30;;;;;;6239714;28;20056;-69
2022/06/02 15:03:55;;;;;;;5.05;1.30;;;18.40;99.40;;;;;;6240833;28;20091;-69
2022/06/02 15:07:17;;;;;;;4.40;1.50;;;18.50;99.80;;;;;;6241807;28;20060;-68
2022/06/02 15:10:28;;;;;;;3.92;1.30;;;18.60;98.30;;;;;;6202179;28;20514;-68
2022/06/02 15:13:46;;;;;;;2.35;1.30;;;18.40;98.10;;;;;;6261476;28;20152;-68
2022/06/02 15:17:20;;;;;;;3.88;1.48;;;18.20;98.20;;;;;;6272298;28;20048;-69
2022/06/02 15:20:28;;;;;;;4.20;1.58;;;18.20;98.40;;;;;;6265619;28;20504;-68
2022/06/02 15:23:58;;;;;;;2.08;1.15;;;18.20;98.10;;;;;;6263335;28;20052;-69
2022/06/02 15:27:30;;;;;;;3.20;1.67;;;18.20;98.30;;;;;;6257455;28;20049;-67
2022/06/02 15:31:01;;;;;;;3.15;1.38;;;18.10;97.40;;;;;;6250267;28;20056;-68
2022/06/02 15:34:28;;;;;;;5.25;1.20;;;18.00;97.50;;;;;;6248925;28;20582;-68
2022/06/02 15:38:24;;;;;;;3.92;1.35;;;17.90;98.00;;;;;;6272713;28;20052;-69
2022/06/02 15:42:03;;;;;;;3.75;1.20;;;18.00;98.30;;;;;;6198173;28;20050;-69
2022/06/02 15:45:43;;;;;;;5.60;1.38;;;18.10;98.20;;;;;;6191802;28;20061;-69
2022/06/02 15:49:13;;;;;;;3.08;1.30;;;18.20;98.50;;;;;;6252009;28;20146;-68
2022/06/02 15:52:40;;;;;;;4.00;1.20;;;18.20;98.00;;;;;;6269469;28;20493;-68
2022/06/02 15:56:08;;;;;;;4.82;1.25;;;18.10;97.40;;;;;;6270293;28;20044;-69
2022/06/02 15:59:38;;;;;;;4.25;1.30;;;18.00;98.00;;;;;;6270239;28;20041;-68
2022/06/02 16:03:36;;;;;;;3.17;1.17;;;17.90;98.20;;;;;;6263481;28;20705;-69
2022/06/02 16:07:22;;;;;;;4.35;1.50;;;17.80;98.40;;;;;;6261065;28;20056;-68
2022/06/02 16:14:40;;;;;;;2.55;1.30;;;17.70;97.40;;;;;;6267444;28;20049;-68
2022/06/02 16:18:26;;;;;;;3.10;1.38;;;17.60;97.30;;;;;;6271619;28;20517;-68
2022/06/02 16:21:58;;;;;;;3.70;1.63;;;17.40;97.70;;;;;;6272524;28;20056;-69
2022/06/02 16:25:29;;;;;;;4.40;1.02;;;17.30;97.60;;;;;;6267763;28;20053;-69
2022/06/02 16:28:59;;;;;;;3.38;1.13;;;17.40;97.50;;;;;;6269479;28;20049;-68
2022/06/02 16:32:24;;;;;;;3.67;1.15;;;17.30;97.50;;;;;;6264405;28;20052;-68
2022/06/02 16:35:43;;;;;;;2.00;1.08;;;17.10;97.70;;;;;;6269722;28;20049;-69
2022/06/02 16:38:52;;;;;;;2.40;0.95;;;17.10;98.50;;;;;;6249349;28;20049;-69
2022/06/02 16:42:09;;;;;;;2.05;0.90;;;17.00;98.00;;;;;;6267400;28;20410;-68
2022/06/02 16:45:55;;;;;;;2.42;1.00;;;17.00;97.90;;;;;;6257892;28;20046;-69
2022/06/02 16:49:21;;;;;;;6.80;1.35;;;17.00;98.00;;;;;;6254777;28;20052;-67
2022/06/02 16:52:59;;;;;;;3.30;1.20;;;16.90;97.40;;;;;;6269146;28;20052;-68
2022/06/02 16:56:02;;;;;;;3.20;1.10;;;16.90;97.50;;;;;;6229646;28;20052;-68
2022/06/02 16:59:20;;;;;;;5.65;1.15;;;16.90;97.70;;;;;;6269057;28;20044;-68
2022/06/02 17:02:36;;;;;;;2.35;1.42;;;16.80;97.20;;;;;;6264505;28;20049;-69
2022/06/02 17:06:15;;;;;;;1.55;0.90;;;16.70;97.60;;;;;;6270681;28;20045;-69
2022/06/02 17:09:48;;;;;;;3.53;1.20;;;16.60;97.80;;;;;;6265314;28;20417;-68
2022/06/02 17:12:55;;;;;;;5.10;1.20;;;16.70;97.60;;;;;;6247457;28;20482;-69
2022/06/02 17:16:34;;;;;;;4.03;1.40;;;16.50;98.10;;;;;;6261611;28;20056;-68
2022/06/02 17:19:46;;;;;;;4.43;1.33;;;16.50;98.30;;;;;;6260773;28;20516;-68
2022/06/02 17:23:35;;;;;;;2.97;1.27;;;16.40;98.70;;;;;;6255118;28;20045;-68
2022/06/02 17:27:02;;;;;;;3.92;0.90;;;16.40;99.20;;;;;;6255750;28;20047;-69
2022/06/02 17:30:12;;;;;;;3.33;1.10;;;16.50;98.20;;;;;;6258674;28;20049;-69
2022/06/02 17:33:29;;;;;;;5.35;1.10;;;16.40;98.30;;;;;;6260266;28;20045;-67
2022/06/02 17:36:41;;;;;;;2.33;1.30;;;16.30;98.60;;;;;;6269902;28;20056;-67
2022/06/02 17:40:03;;;;;;;4.18;1.20;;;15.90;98.00;;;;;;6266313;28;20052;-67
2022/06/02 17:43:23;;;;;;;4.00;1.27;;;15.80;98.70;;;;;;6268344;28;20056;-67
2022/06/02 17:47:10;;;;;;;3.10;1.10;;;15.90;98.10;;;;;;6261672;28;20044;-66